Hauptseite
METAR-TAF:

METAR-TAF

Flughäfen :

Militärflugplatz Sarzana-Luni

Sarzana, Italien

Breite: 44-05N, Länge: 009-59E, Höhe: 9 m

Beobachtung

Neuester Wetterbericht von vor 6 Stunden und 24 Minuten, um 13:55 UTC
Wind 3 kt aus Ost/Südost
Temperatur 19°C
Luftfeuchtigkeit 94%
Luftdruck 1006 hPa
Sichtweite: 8000 m
Aufgelockert bewölkt in der Höhe von 2000 ft

METAR: LIQW 301355Z 12003KT 8000 SCT020 19/18 Q1006 RMK OVC BKN070 VIS MIN 8000 WIND THR14 /////KT BLU

Zeit: 22:19 (20:19 UTC)

Prognose

Neuester Wetterbericht von vor 9 Stunden und 19 Minuten, um 11:00 UTC
Gültige Prognose vom 30 um 12 UTC bis 30 um 21 UTC
Wind 3 kt aus Süd/Südost
Sichtweite 10 km oder mehr
Aufgelockert bewölkt in der Höhe von 2000 ft
Aufgelockert bewölkt in der Höhe von 5000 ft
Zeitweise
vom 30 um 12 UTC bis 30 um 15 UTC
Sichtweite: 5000 m
Regen,

TAF: LIQW 301100Z 3012/3021 15003KT 9999 SCT020 SCT050 TEMPO 3012/3015 5000 RA

Wetterbeobachtungen und Prognosen von mehr als 4000 Flughäfen (METAR und TAF Bericht).

Die verfügbaren Stationen werden durch gelbe und rote Markierungen auf der Karte dargestellt.

Führen Sie die Maus auf sie, um den Namen der Station zu sehen.

Darauf klicken, um die Beobachtung von Wetterbeobachtungen und Prognosen zu sehen.

Um die Karte zu ändern : klicken Sie auf den grünen Tasten mit einem schwarzen Kreuz Zum Vergrößern, auf den grünen Button mit einem Gedankenstrich zu verkleinern, oder auf die grünen Pfeile für benachbarte Karten.


METAR-TAF: